Terminal Aerodrome Forecast
Issued by NWS Wilmington, OH

Current Version | Previous Version | Text Only | Print | Product List | Glossary Off
Versions: 1 2 3 4 5 6 7 8 9 10 11 12 13 14 15 16 17 18 19 20

296
FTUS41 KILN 210858 AAA
TAFCVG
TAF AMD
KCVG 210858Z 2109/2212 32008KT P6SM BKN050
     FM212300 36008KT P6SM OVC080
     FM220300 03008KT P6SM OVC040
     FM220700 04010KT 5SM -SHRA OVC035=

USA.gov is the U.S. government's official web portal to all federal, state and local government web resources and services.